Time;durP1;ratioP1;P1;durP2;ratioP2;P2;SDS_P1;SDS_P2;PMS_P1;PMS_P2;Temp;Humidity;BMP_temperature;BMP_pressure;BME280_temperature;BME280_humidity;BME280_pressure;Samples;Min_cycle;Max_cycle;Signal;HPM_P1;HPM_P2
2024/01/25 00:01:11;;;;;;;9.15;3.38;;;;;;;21.55;34.24;102468.28;5020595;28;20041;-64
2024/01/25 00:03:36;;;;;;;9.23;2.92;;;;;;;21.58;34.22;102471.47;4986096;28;20669;-64
2024/01/25 00:06:02;;;;;;;9.57;3.38;;;;;;;21.57;34.04;102475.09;5005859;28;20046;-65
2024/01/25 00:08:28;;;;;;;10.10;3.22;;;;;;;21.56;33.97;102483.19;5025087;28;20049;-65
2024/01/25 00:10:54;;;;;;;8.38;3.00;;;;;;;21.54;34.30;102485.97;4984141;28;20045;-64
2024/01/25 00:13:19;;;;;;;8.20;3.10;;;;;;;21.55;34.07;102489.50;5024174;28;20064;-64
2024/01/25 00:15:45;;;;;;;8.57;2.45;;;;;;;21.54;34.22;102493.09;4984541;28;20095;-64
2024/01/25 00:18:10;;;;;;;8.98;2.80;;;;;;;21.49;34.35;102492.72;5019575;28;20045;-64
2024/01/25 00:20:36;;;;;;;8.35;3.90;;;;;;;21.32;34.34;102467.88;4987747;28;20044;-64
2024/01/25 00:23:01;;;;;;;10.15;3.83;;;;;;;21.50;34.06;102497.88;5011610;28;20450;-64
2024/01/25 00:25:27;;;;;;;9.20;3.10;;;;;;;21.51;34.26;102496.06;5020225;28;20042;-65
2024/01/25 00:27:53;;;;;;;11.18;3.30;;;;;;;21.49;34.11;102508.63;5023834;28;20052;-65
2024/01/25 00:30:18;;;;;;;7.90;3.10;;;;;;;21.48;34.24;102505.13;4981761;28;21322;-64
2024/01/25 00:32:44;;;;;;;7.85;2.45;;;;;;;21.44;34.27;102495.00;5024570;28;20049;-66
2024/01/25 00:35:10;;;;;;;7.47;2.78;;;;;;;21.45;34.36;102504.63;4994668;28;20052;-65
2024/01/25 00:37:40;;;;;;;7.97;2.58;;;;;;;21.35;34.14;102497.53;5018944;28;20144;-65
2024/01/25 00:40:06;;;;;;;6.78;2.92;;;;;;;21.39;34.16;102504.25;4989611;28;20041;-65
2024/01/25 00:42:39;;;;;;;9.32;2.80;;;;;;;21.34;34.19;102493.22;5015455;28;20045;-65
2024/01/25 00:45:05;;;;;;;7.15;3.08;;;;;;;21.43;34.18;102504.75;5026024;28;20091;-65
2024/01/25 00:47:31;;;;;;;10.45;2.95;;;;;;;21.44;34.30;102513.56;4985140;28;20641;-65
2024/01/25 00:49:57;;;;;;;8.10;3.30;;;;;;;21.41;34.41;102509.38;5023325;28;20033;-65
2024/01/25 00:52:22;;;;;;;9.45;2.95;;;;;;;21.35;34.24;102508.16;4990084;28;20477;-65
2024/01/25 00:54:48;;;;;;;7.82;3.20;;;;;;;21.21;34.34;102490.09;5027347;28;20381;-65
2024/01/25 00:57:14;;;;;;;8.20;3.42;;;;;;;21.39;34.41;102509.53;4992380;28;20033;-64
2024/01/25 00:59:39;;;;;;;8.88;3.08;;;;;;;21.36;34.19;102498.38;5024225;28;20416;-65
2024/01/25 01:02:10;;;;;;;8.75;2.72;;;;;;;21.35;34.24;102502.84;4995989;28;20045;-65
2024/01/25 01:04:37;;;;;;;7.53;2.70;;;;;;;21.34;34.40;102503.84;5015310;28;20043;-65
2024/01/25 01:07:02;;;;;;;8.95;2.80;;;;;;;21.34;34.30;102503.84;5025058;28;20718;-65
2024/01/25 01:09:28;;;;;;;6.78;2.70;;;;;;;21.34;34.39;102506.47;4992569;28;20048;-65
2024/01/25 01:11:54;;;;;;;7.20;2.65;;;;;;;21.36;34.32;102511.63;5026555;28;20041;-65
2024/01/25 01:14:19;;;;;;;8.55;3.00;;;;;;;21.36;34.15;102511.63;4991178;28;20370;-65
2024/01/25 01:16:44;;;;;;;8.07;2.58;;;;;;;21.35;34.34;102516.09;5025694;28;20041;-66
2024/01/25 01:19:10;;;;;;;7.32;2.83;;;;;;;21.34;34.30;102513.59;4990348;28;20045;-66
2024/01/25 01:21:36;;;;;;;8.27;2.83;;;;;;;21.34;34.48;102521.53;5028285;28;20037;-65
2024/01/25 01:24:02;;;;;;;9.35;2.90;;;;;;;21.28;34.22;102515.03;4990465;28;20906;-65
2024/01/25 01:26:27;;;;;;;6.45;2.60;;;;;;;21.29;34.48;102522.00;5027884;28;20033;-66
2024/01/25 01:28:53;;;;;;;8.95;2.83;;;;;;;21.34;34.40;102530.31;4990267;28;20041;-65
2024/01/25 01:31:18;;;;;;;11.43;3.47;;;;;;;21.31;34.24;102529.78;5012231;28;20063;-65
2024/01/25 01:33:44;;;;;;;9.80;2.85;;;;;;;21.31;34.24;102535.09;5029305;28;20030;-65
2024/01/25 01:36:09;;;;;;;8.15;2.83;;;;;;;21.26;34.57;102529.41;4984588;28;20850;-65
2024/01/25 01:38:35;;;;;;;6.90;2.65;;;;;;;21.29;34.28;102535.25;5026192;28;20600;-65
2024/01/25 01:41:00;;;;;;;7.38;2.80;;;;;;;21.24;34.24;102540.16;4987510;28;20182;-65
2024/01/25 01:43:26;;;;;;;9.02;4.13;;;;;;;21.26;34.37;102550.63;5023247;28;20114;-66
2024/01/25 01:45:53;;;;;;;7.53;2.63;;;;;;;21.29;34.29;102556.44;4989518;28;20026;-65
2024/01/25 01:48:18;;;;;;;8.27;2.97;;;;;;;21.22;34.42;102560.66;5026937;28;20049;-65
2024/01/25 01:50:44;;;;;;;9.02;2.90;;;;;;;21.21;34.51;102574.03;4992848;28;20102;-65
2024/01/25 01:53:10;;;;;;;7.82;3.10;;;;;;;21.24;34.46;102573.75;5029666;28;20120;-65
2024/01/25 01:55:37;;;;;;;7.03;3.00;;;;;;;21.23;34.39;102582.69;4998967;28;20045;-65
2024/01/25 01:58:03;;;;;;;6.25;2.70;;;;;;;21.21;34.33;102576.69;5023585;28;20056;-65
2024/01/25 02:00:30;;;;;;;10.15;3.00;;;;;;;21.18;34.47;102571.66;4983670;28;20045;-65
2024/01/25 02:02:59;;;;;;;7.13;3.25;;;;;;;21.22;34.45;102578.34;5013167;28;20041;-65
2024/01/25 02:05:24;;;;;;;7.85;2.75;;;;;;;21.21;34.55;102579.34;4992362;28;20620;-66
2024/01/25 02:07:52;;;;;;;5.88;2.53;;;;;;;21.23;34.40;102591.47;5021379;28;20033;-65
2024/01/25 02:10:18;;;;;;;9.73;3.38;;;;;;;21.21;34.60;102588.13;4992034;28;20139;-66
2024/01/25 02:12:43;;;;;;;7.50;2.58;;;;;;;21.16;34.54;102587.72;5007690;28;20578;-65
2024/01/25 02:15:09;;;;;;;8.38;3.13;;;;;;;21.20;34.58;102597.06;4989152;28;20465;-65
2024/01/25 02:17:34;;;;;;;6.25;2.50;;;;;;;21.19;34.55;102600.69;5030121;28;20098;-65
2024/01/25 02:20:02;;;;;;;7.18;2.65;;;;;;;21.14;34.69;102589.66;4976502;28;20041;-64
2024/01/25 02:22:28;;;;;;;5.65;2.63;;;;;;;21.15;34.49;102598.44;5025140;28;20060;-64
2024/01/25 02:24:53;;;;;;;6.90;2.78;;;;;;;21.15;34.63;102611.69;5027366;28;20473;-64
2024/01/25 02:27:19;;;;;;;8.60;2.95;;;;;;;21.11;34.45;102593.44;4986977;28;20049;-64
2024/01/25 02:29:44;;;;;;;7.28;2.70;;;;;;;21.13;34.72;102604.72;5023790;28;20041;-64
2024/01/25 02:32:10;;;;;;;7.32;2.58;;;;;;;21.13;34.49;102603.91;4978553;28;20034;-64
2024/01/25 02:34:35;;;;;;;10.35;2.95;;;;;;;21.07;34.53;102601.84;5023576;28;20045;-64
2024/01/25 02:37:01;;;;;;;7.30;2.60;;;;;;;21.12;34.46;102612.81;4990778;28;20049;-64
2024/01/25 02:39:26;;;;;;;7.85;3.15;;;;;;;21.11;34.71;102613.81;5026203;28;20041;-64
2024/01/25 02:41:52;;;;;;;8.25;3.03;;;;;;;21.13;34.63;102610.03;4992111;28;20115;-64
2024/01/25 02:44:17;;;;;;;8.38;2.85;;;;;;;21.11;34.83;102611.16;5030356;28;20452;-64
2024/01/25 02:46:44;;;;;;;6.85;3.38;;;;;;;21.10;34.75;102620.91;5015645;28;20064;-64
2024/01/25 02:49:10;;;;;;;7.60;2.88;;;;;;;21.09;34.64;102611.31;5028886;28;20506;-64
2024/01/25 02:51:36;;;;;;;9.77;3.38;;;;;;;21.06;34.70;102618.72;4981996;28;20037;-64
2024/01/25 02:54:02;;;;;;;8.85;3.25;;;;;;;21.05;34.64;102606.44;5024510;28;20048;-64
2024/01/25 02:56:33;;;;;;;8.05;2.72;;;;;;;21.11;34.86;102621.75;4987772;28;20689;-64
2024/01/25 02:58:59;;;;;;;8.70;2.92;;;;;;;21.02;34.56;102607.59;5028236;28;20804;-64
2024/01/25 03:01:25;;;;;;;8.05;3.05;;;;;;;21.06;34.82;102616.06;4991317;28;20611;-64
2024/01/25 03:03:50;;;;;;;8.65;2.60;;;;;;;21.06;34.75;102619.53;5027707;28;20052;-64
2024/01/25 03:06:16;;;;;;;6.28;2.70;;;;;;;21.05;34.74;102615.22;4987269;28;20104;-64
2024/01/25 03:08:41;;;;;;;7.22;2.70;;;;;;;21.01;34.65;102613.84;5021613;28;20436;-64
2024/01/25 03:11:07;;;;;;;8.85;2.75;;;;;;;21.01;34.92;102618.31;5015553;28;20369;-63
2024/01/25 03:13:34;;;;;;;6.15;2.88;;;;;;;21.03;34.84;102632.25;5029517;28;20075;-63
2024/01/25 03:15:59;;;;;;;9.88;3.17;;;;;;;21.00;35.00;102632.50;4986642;28;20099;-64
2024/01/25 03:18:25;;;;;;;6.07;2.30;;;;;;;21.05;34.76;102628.47;5031227;28;20041;-64
2024/01/25 03:20:51;;;;;;;8.02;2.97;;;;;;;20.95;34.83;102619.72;4988933;28;20152;-64
2024/01/25 03:23:19;;;;;;;8.73;3.30;;;;;;;21.01;34.86;102624.44;5027761;28;20029;-64
2024/01/25 03:25:45;;;;;;;6.07;2.33;;;;;;;21.00;34.79;102629.88;4990582;28;20033;-64
2024/01/25 03:28:13;;;;;;;7.57;2.15;;;;;;;21.00;34.91;102635.16;5017803;28;20044;-64
2024/01/25 03:30:38;;;;;;;6.57;2.65;;;;;;;20.99;35.01;102642.28;5026861;28;20084;-64
2024/01/25 03:33:04;;;;;;;7.45;3.03;;;;;;;20.96;34.64;102629.31;5021713;28;20064;-64
2024/01/25 03:35:29;;;;;;;6.47;2.28;;;;;;;20.95;35.14;102638.25;4999427;28;20021;-64
2024/01/25 03:37:55;;;;;;;7.88;2.88;;;;;;;21.01;34.95;102650.94;5041247;28;20608;-63
2024/01/25 03:40:20;;;;;;;7.70;2.60;;;;;;;20.99;34.89;102652.03;4987430;28;20042;-64
2024/01/25 03:42:46;;;;;;;6.25;2.75;;;;;;;20.98;34.71;102651.19;5027756;28;20040;-64
2024/01/25 03:45:11;;;;;;;8.48;3.08;;;;;;;20.99;34.87;102654.69;4992624;28;20045;-64
2024/01/25 03:47:37;;;;;;;7.75;3.00;;;;;;;20.97;35.00;102652.19;5024896;28;20039;-64
2024/01/25 03:50:03;;;;;;;9.65;2.80;;;;;;;20.91;35.01;102636.88;4992337;28;20484;-64
2024/01/25 03:52:30;;;;;;;6.50;2.50;;;;;;;20.94;35.05;102641.88;5044049;28;20049;-64
2024/01/25 03:54:56;;;;;;;6.78;2.67;;;;;;;20.88;34.80;102626.56;5027475;28;20262;-64
2024/01/25 03:57:22;;;;;;;8.27;2.65;;;;;;;20.96;35.02;102634.63;4991211;28;20049;-64
2024/01/25 03:59:47;;;;;;;5.60;2.67;;;;;;;20.90;34.96;102631.72;5060332;28;20049;-64
2024/01/25 04:02:13;;;;;;;7.55;2.30;;;;;;;20.93;34.89;102642.03;4993527;28;20045;-64
2024/01/25 04:04:38;;;;;;;9.73;2.55;;;;;;;20.94;35.06;102647.19;5032201;28;20056;-64
2024/01/25 04:07:04;;;;;;;8.00;3.08;;;;;;;20.90;34.89;102651.09;4991971;28;20453;-64
2024/01/25 04:09:29;;;;;;;9.57;3.30;;;;;;;20.89;35.06;102659.19;5026317;28;20068;-63
2024/01/25 04:11:56;;;;;;;6.78;2.47;;;;;;;20.89;34.94;102664.47;5015994;28;20489;-64
2024/01/25 04:14:21;;;;;;;8.52;2.38;;;;;;;20.88;34.99;102653.06;5027537;28;20033;-63
2024/01/25 04:16:47;;;;;;;8.82;3.10;;;;;;;20.86;34.92;102654.19;5011294;28;20029;-64
2024/01/25 04:19:12;;;;;;;8.35;3.10;;;;;;;20.79;35.05;102646.78;5020985;28;20049;-64
2024/01/25 04:21:38;;;;;;;8.63;2.75;;;;;;;20.86;35.06;102662.94;4984783;28;26342;-64
2024/01/25 04:24:04;;;;;;;9.20;3.13;;;;;;;20.81;34.97;102654.56;5025715;28;20045;-64
2024/01/25 04:26:29;;;;;;;8.48;2.83;;;;;;;20.83;35.02;102660.59;4984275;28;20380;-64
2024/01/25 04:28:55;;;;;;;6.43;2.70;;;;;;;20.90;35.13;102666.16;5027445;28;20061;-64
2024/01/25 04:31:20;;;;;;;10.07;3.45;;;;;;;20.90;34.91;102666.16;5010958;28;20103;-64
2024/01/25 04:33:46;;;;;;;5.18;2.47;;;;;;;20.88;34.91;102663.66;5013239;28;20425;-64
2024/01/25 04:36:12;;;;;;;7.38;2.55;;;;;;;20.84;35.08;102650.84;5017860;28;20562;-64
2024/01/25 04:38:38;;;;;;;9.55;2.72;;;;;;;20.86;35.21;102664.75;5014981;28;20063;-64
2024/01/25 04:41:05;;;;;;;6.13;3.15;;;;;;;20.86;34.93;102676.19;5016200;28;20037;-64
2024/01/25 04:43:35;;;;;;;7.78;3.03;;;;;;;20.84;34.99;102682.63;5025313;28;20038;-64
2024/01/25 04:46:00;;;;;;;7.60;2.55;;;;;;;20.87;35.15;102680.50;5025282;28;20052;-64
2024/01/25 04:48:26;;;;;;;7.60;2.30;;;;;;;20.87;35.02;102685.81;4989372;28;20044;-63
2024/01/25 04:50:51;;;;;;;6.47;2.58;;;;;;;20.85;35.21;102677.16;5027859;28;20029;-64
2024/01/25 04:53:17;;;;;;;7.50;2.63;;;;;;;20.84;34.96;102680.81;4990183;28;20033;-64
2024/01/25 04:55:43;;;;;;;7.85;2.50;;;;;;;20.86;35.01;102683.31;5028707;28;20060;-64
2024/01/25 04:58:08;;;;;;;5.97;1.92;;;;;;;20.81;35.10;102675.75;4991431;28;20041;-64
2024/01/25 05:00:35;;;;;;;6.43;2.50;;;;;;;20.85;35.14;102676.34;5023207;28;20179;-64
2024/01/25 05:03:00;;;;;;;7.28;2.08;;;;;;;20.82;35.16;102682.72;4989750;28;20040;-63
2024/01/25 05:05:26;;;;;;;6.28;2.50;;;;;;;20.78;35.15;102682.19;5037303;28;20118;-64
2024/01/25 05:07:51;;;;;;;8.85;3.03;;;;;;;20.81;34.99;102694.28;5015188;28;20045;-64
2024/01/25 05:10:17;;;;;;;5.82;2.60;;;;;;;20.68;35.05;102673.44;5024459;28;20041;-64
2024/01/25 05:12:43;;;;;;;6.53;2.40;;;;;;;20.79;35.12;102696.25;4956371;28;20041;-64
2024/01/25 05:15:09;;;;;;;7.43;2.63;;;;;;;20.77;35.22;102693.75;5028095;28;20045;-64
2024/01/25 05:17:35;;;;;;;7.28;2.40;;;;;;;20.80;35.29;102700.56;4993734;28;20218;-64
2024/01/25 05:20:00;;;;;;;9.30;3.65;;;;;;;20.80;35.08;102696.09;5025265;28;20056;-63
2024/01/25 05:22:26;;;;;;;6.10;2.53;;;;;;;20.82;35.10;102703.91;4987278;28;20041;-64
2024/01/25 05:24:51;;;;;;;9.80;3.53;;;;;;;20.74;35.43;102691.38;5012442;28;20095;-63
2024/01/25 05:27:17;;;;;;;4.95;2.17;;;;;;;20.81;35.20;102702.25;5025969;28;20026;-64
2024/01/25 05:29:42;;;;;;;7.50;2.70;;;;;;;20.64;35.35;102687.91;4988680;28;20808;-64
2024/01/25 05:32:08;;;;;;;18.45;2.85;;;;;;;20.80;35.35;102704.06;5037021;28;20041;-64
2024/01/25 05:34:33;;;;;;;7.90;2.30;;;;;;;20.82;35.36;102706.56;4992461;28;21676;-64
2024/01/25 05:36:59;;;;;;;6.20;2.40;;;;;;;20.79;35.39;102706.84;5026436;28;20045;-64
2024/01/25 05:39:24;;;;;;;6.43;2.88;;;;;;;20.77;35.34;102714.94;4995528;28;20045;-64
2024/01/25 05:41:50;;;;;;;6.03;2.53;;;;;;;20.78;35.26;102716.59;5026865;28;20041;-64
2024/01/25 05:44:15;;;;;;;7.18;2.65;;;;;;;20.80;35.24;102724.41;5017714;28;20041;-64
2024/01/25 05:46:41;;;;;;;7.53;2.80;;;;;;;20.76;35.34;102723.00;4991356;28;20025;-64
2024/01/25 05:49:06;;;;;;;8.40;2.90;;;;;;;20.74;35.46;102723.16;5028512;28;20067;-63
2024/01/25 05:51:32;;;;;;;6.15;2.20;;;;;;;20.70;35.46;102723.59;4987556;28;20042;-64
2024/01/25 05:53:57;;;;;;;11.15;3.00;;;;;;;20.67;35.67;102723.88;5025237;28;20049;-63
2024/01/25 05:56:23;;;;;;;8.63;3.25;;;;;;;20.69;35.54;102727.22;4992908;28;20112;-64
2024/01/25 05:58:49;;;;;;;7.43;2.95;;;;;;;20.70;35.55;102748.25;5027003;28;20045;-64
2024/01/25 06:01:14;;;;;;;5.75;2.80;;;;;;;20.69;35.23;102743.94;4991768;28;20702;-63
2024/01/25 06:03:40;;;;;;;6.03;2.47;;;;;;;20.72;35.52;102748.94;5029038;28;20477;-64
2024/01/25 06:06:07;;;;;;;8.60;2.58;;;;;;;20.69;35.57;102743.94;4989485;28;20114;-64
2024/01/25 06:08:34;;;;;;;5.78;2.33;;;;;;;20.69;35.44;102757.16;5024352;28;20428;-64
2024/01/25 06:11:00;;;;;;;5.40;2.15;;;;;;;20.64;35.51;102746.13;5017122;28;20045;-64
2024/01/25 06:13:25;;;;;;;4.95;2.42;;;;;;;20.68;35.47;102752.84;5025356;28;20099;-64
2024/01/25 06:15:51;;;;;;;7.05;2.80;;;;;;;20.69;35.71;102754.53;4989783;28;20370;-65
2024/01/25 06:18:16;;;;;;;8.45;2.70;;;;;;;20.70;35.61;102750.06;5027227;28;20583;-64
2024/01/25 06:20:42;;;;;;;5.28;2.78;;;;;;;20.68;35.70;102754.66;4993707;28;20052;-64
2024/01/25 06:23:07;;;;;;;6.55;2.95;;;;;;;20.68;35.52;102752.00;5025808;28;20045;-64
2024/01/25 06:25:35;;;;;;;5.28;2.92;;;;;;;20.62;35.78;102752.53;4987349;28;20052;-64
2024/01/25 06:28:00;;;;;;;6.03;2.35;;;;;;;20.67;35.67;102760.94;5022829;28;20095;-64
2024/01/25 06:30:26;;;;;;;10.88;3.45;;;;;;;20.66;35.59;102765.38;4987020;28;20622;-64
2024/01/25 06:32:51;;;;;;;5.68;2.45;;;;;;;20.66;35.61;102760.09;5026894;28;20481;-64
2024/01/25 06:35:17;;;;;;;5.03;2.75;;;;;;;20.66;35.71;102760.09;5013012;28;20111;-63
2024/01/25 06:37:42;;;;;;;5.35;2.28;;;;;;;20.63;35.70;102743.63;5026445;28;20052;-64
2024/01/25 06:40:08;;;;;;;7.60;2.55;;;;;;;20.55;35.74;102731.09;4981440;28;20050;-64
2024/01/25 06:42:34;;;;;;;6.72;2.67;;;;;;;20.66;35.70;102740.72;5024315;28;20049;-64
2024/01/25 06:44:59;;;;;;;6.68;2.58;;;;;;;20.64;35.97;102750.59;4992039;28;20045;-63
2024/01/25 06:47:25;;;;;;;6.25;2.80;;;;;;;20.57;35.71;102747.69;5017860;28;20048;-64
2024/01/25 06:49:51;;;;;;;6.05;2.10;;;;;;;20.59;35.83;102747.53;4996053;28;20049;-64
2024/01/25 06:52:20;;;;;;;9.15;2.80;;;;;;;20.63;35.78;102752.41;5012112;28;20639;-64
2024/01/25 06:54:45;;;;;;;7.85;2.60;;;;;;;20.65;35.64;102757.59;5026108;28;20088;-64
2024/01/25 06:57:11;;;;;;;6.57;2.65;;;;;;;20.63;35.75;102760.34;5005781;28;20045;-64
2024/01/25 06:59:37;;;;;;;6.63;2.50;;;;;;;20.60;35.81;102765.91;5014214;28;20029;-63
2024/01/25 07:02:03;;;;;;;5.30;2.25;;;;;;;20.60;35.89;102776.50;5026608;28;20531;-63
2024/01/25 07:04:29;;;;;;;8.00;2.72;;;;;;;20.61;35.87;102770.25;4992792;28;20588;-64
2024/01/25 07:06:55;;;;;;;7.43;2.85;;;;;;;20.56;35.63;102761.06;5023499;28;20654;-63
2024/01/25 07:09:20;;;;;;;6.20;2.30;;;;;;;20.55;35.68;102751.44;4986564;28;20050;-63
2024/01/25 07:11:46;;;;;;;8.20;3.03;;;;;;;20.62;35.71;102756.03;5014372;28;20462;-64
2024/01/25 07:14:12;;;;;;;7.50;2.58;;;;;;;20.58;35.47;102753.81;5028901;28;20510;-63
2024/01/25 07:16:38;;;;;;;6.47;2.38;;;;;;;20.62;35.81;102765.78;4983177;28;20041;-64
2024/01/25 07:19:03;;;;;;;8.52;2.60;;;;;;;20.55;35.70;102752.28;5023376;28;22127;-64
2024/01/25 07:21:32;;;;;;;9.63;2.78;;;;;;;20.58;35.84;102756.44;4993321;28;20124;-63
2024/01/25 07:23:59;;;;;;;9.48;2.88;;;;;;;20.60;35.65;102757.97;5021477;28;20052;-64
2024/01/25 07:26:25;;;;;;;6.70;2.50;;;;;;;20.62;35.86;102763.13;4990703;28;20044;-64
2024/01/25 07:28:53;;;;;;;4.38;2.20;;;;;;;20.60;35.66;102760.63;5010168;28;20033;-64
2024/01/25 07:31:20;;;;;;;6.88;2.55;;;;;;;20.58;35.71;102767.88;5029487;28;20668;-63
2024/01/25 07:33:45;;;;;;;10.88;2.42;;;;;;;20.66;35.81;102775.16;4986495;28;20026;-64
2024/01/25 07:36:11;;;;;;;7.75;2.90;;;;;;;20.62;36.00;102777.19;5020088;28;20625;-64
2024/01/25 07:38:36;;;;;;;8.15;2.60;;;;;;;20.56;35.84;102766.34;4988470;28;20045;-64
2024/01/25 07:41:02;;;;;;;11.15;2.47;;;;;;;20.46;35.73;102735.41;5022152;28;20351;-63
2024/01/25 07:43:27;;;;;;;8.40;2.50;;;;;;;20.57;35.82;102765.38;4984626;28;20033;-64
2024/01/25 07:45:53;;;;;;;7.07;2.42;;;;;;;20.54;35.71;102755.06;5023256;28;20045;-64
2024/01/25 07:48:18;;;;;;;8.98;3.08;;;;;;;20.58;35.76;102769.69;5013744;28;20052;-64
2024/01/25 07:50:44;;;;;;;6.38;2.47;;;;;;;20.71;35.67;102783.50;5020607;28;20072;-63
2024/01/25 07:53:12;;;;;;;7.10;2.58;;;;;;;20.98;35.26;102790.72;4984254;28;20036;-63
2024/01/25 07:55:37;;;;;;;6.47;2.63;;;;;;;21.12;35.01;102785.84;5025415;28;20061;-64
2024/01/25 07:58:03;;;;;;;4.85;2.30;;;;;;;21.16;34.77;102798.81;4985897;28;20045;-64
2024/01/25 08:00:28;;;;;;;7.38;2.20;;;;;;;21.07;35.07;102785.44;5024163;28;20057;-64
2024/01/25 08:02:54;;;;;;;5.68;2.33;;;;;;;21.08;34.99;102792.41;4985653;28;20327;-64
2024/01/25 08:05:19;;;;;;;5.68;2.60;;;;;;;21.05;35.34;102781.28;5013357;28;20588;-64
2024/01/25 08:07:46;;;;;;;8.50;3.08;;;;;;;21.07;35.20;102788.09;5022060;28;20864;-64
2024/01/25 08:10:11;;;;;;;8.85;3.17;;;;;;;21.03;35.10;102783.22;5015147;28;20046;-63
2024/01/25 08:12:39;;;;;;;6.97;2.67;;;;;;;21.03;35.21;102777.94;4992102;28;20374;-64
2024/01/25 08:15:05;;;;;;;8.25;2.80;;;;;;;20.95;35.28;102783.06;5015292;28;20056;-64
2024/01/25 08:17:31;;;;;;;7.05;2.65;;;;;;;20.95;35.21;102791.03;4994941;28;20052;-64
2024/01/25 08:19:57;;;;;;;6.60;3.10;;;;;;;20.96;35.28;102793.53;5021571;28;20045;-64
2024/01/25 08:22:23;;;;;;;5.70;2.95;;;;;;;20.97;35.35;102797.00;4984175;28;20106;-64
2024/01/25 08:24:48;;;;;;;9.35;3.10;;;;;;;20.88;35.22;102788.09;5029363;28;20040;-64
2024/01/25 08:27:14;;;;;;;7.63;3.30;;;;;;;20.96;35.40;102792.69;4983115;28;20064;-64
2024/01/25 08:29:40;;;;;;;11.18;3.63;;;;;;;20.96;35.26;102796.16;5029538;28;20082;-64
2024/01/25 08:32:06;;;;;;;10.35;3.10;;;;;;;20.91;35.26;102805.53;5013093;28;20112;-64
2024/01/25 08:34:32;;;;;;;8.45;3.05;;;;;;;20.70;35.32;102774.72;5031571;28;20060;-64
2024/01/25 08:36:57;;;;;;;7.88;2.92;;;;;;;20.90;35.38;102809.97;4981348;28;20065;-65
2024/01/25 08:39:23;;;;;;;9.43;3.00;;;;;;;20.85;35.42;102800.78;5017695;28;20077;-64
2024/01/25 08:41:50;;;;;;;6.53;2.63;;;;;;;20.90;35.56;102814.44;5004525;28;20049;-64
2024/01/25 08:44:15;;;;;;;6.80;3.38;;;;;;;20.84;35.36;102818.50;5035336;28;20041;-64
2024/01/25 08:46:42;;;;;;;8.50;3.15;;;;;;;20.86;35.52;102816.53;4985624;28;20292;-64
2024/01/25 08:49:09;;;;;;;8.65;3.13;;;;;;;20.81;35.40;102805.50;5030080;28;20033;-64
2024/01/25 08:51:36;;;;;;;7.70;3.30;;;;;;;20.87;35.29;102812.09;4986196;28;20137;-64
2024/01/25 08:54:03;;;;;;;6.95;2.63;;;;;;;20.83;35.31;102811.53;5006928;28;20064;-64
2024/01/25 08:56:29;;;;;;;7.90;2.80;;;;;;;20.79;35.63;102816.25;5016871;28;20073;-64
2024/01/25 08:58:54;;;;;;;9.13;3.25;;;;;;;20.87;35.46;102814.72;4999960;28;20504;-64
2024/01/25 09:01:20;;;;;;;9.82;3.10;;;;;;;20.89;35.25;102823.38;5028793;28;20349;-64
2024/01/25 09:03:47;;;;;;;10.18;3.47;;;;;;;20.84;35.24;102823.78;4993495;28;20045;-64
2024/01/25 09:06:12;;;;;;;8.13;2.95;;;;;;;20.81;35.36;102831.97;5030702;28;20045;-64
2024/01/25 09:08:38;;;;;;;7.10;3.05;;;;;;;20.76;35.31;102820.97;4985544;28;20048;-64
2024/01/25 09:11:03;;;;;;;8.10;3.25;;;;;;;20.83;35.28;102829.22;5021726;28;20049;-64
2024/01/25 09:13:29;;;;;;;9.82;3.72;;;;;;;20.77;35.52;102835.88;4984539;28;20041;-64
2024/01/25 09:15:55;;;;;;;13.57;4.10;;;;;;;20.79;35.58;102841.88;5025140;28;20053;-64
2024/01/25 09:18:21;;;;;;;10.25;3.40;;;;;;;20.81;35.35;102834.63;5008420;28;20095;-64
2024/01/25 09:20:48;;;;;;;10.00;3.00;;;;;;;20.73;35.23;102821.25;5028960;28;20032;-64
2024/01/25 09:23:17;;;;;;;7.75;2.72;;;;;;;20.71;35.53;102825.84;4993746;28;20131;-64
2024/01/25 09:25:44;;;;;;;8.05;3.17;;;;;;;20.75;35.44;102840.50;5030090;28;20539;-64
2024/01/25 09:28:11;;;;;;;7.38;3.03;;;;;;;20.76;35.58;102844.81;4997935;28;20041;-64
2024/01/25 09:30:42;;;;;;;9.95;3.08;;;;;;;20.73;35.36;102843.28;5029793;28;20044;-64
2024/01/25 09:33:07;;;;;;;11.55;3.25;;;;;;;20.76;35.22;102840.34;4998511;28;20040;-64
2024/01/25 09:35:33;;;;;;;8.23;2.60;;;;;;;20.76;35.22;102837.69;5031831;28;20049;-64
2024/01/25 09:37:59;;;;;;;7.80;2.72;;;;;;;20.72;35.46;102833.66;4997962;28;20049;-64
2024/01/25 09:40:24;;;;;;;8.88;3.33;;;;;;;20.77;35.33;102828.78;5025314;28;20029;-64
2024/01/25 09:42:52;;;;;;;8.82;3.33;;;;;;;20.80;35.34;102833.78;5018908;28;20056;-64
2024/01/25 09:45:18;;;;;;;7.75;3.28;;;;;;;20.84;35.41;102831.72;5021163;28;20029;-64
2024/01/25 09:47:47;;;;;;;8.82;3.33;;;;;;;20.85;35.13;102825.47;5009072;28;20078;-60
2024/01/25 09:50:14;;;;;;;11.48;3.85;;;;;;;20.77;35.38;102828.78;5027030;28;20036;-60
2024/01/25 09:52:42;;;;;;;8.63;3.53;;;;;;;20.78;35.13;102830.44;4996175;28;20049;-60
2024/01/25 09:55:13;;;;;;;11.20;3.45;;;;;;;20.70;35.32;102818.88;5027316;28;20103;-60
2024/01/25 09:57:41;;;;;;;7.38;3.53;;;;;;;20.84;35.33;102834.38;5003636;28;20091;-60
2024/01/25 10:00:11;;;;;;;8.90;3.50;;;;;;;20.79;35.21;102826.81;5038262;28;20099;-60
2024/01/25 10:02:38;;;;;;;7.30;2.90;;;;;;;20.84;35.17;102830.91;5019713;28;20098;-60
2024/01/25 10:05:04;;;;;;;11.73;3.83;;;;;;;20.78;35.15;102825.16;5033245;28;20053;-60
2024/01/25 10:07:43;;;;;;;6.32;2.58;;;;;;;20.82;35.16;102828.34;5022400;28;20053;-60
2024/01/25 10:10:10;;;;;;;11.23;3.67;;;;;;;21.00;34.94;102837.28;5026562;28;20048;-60
2024/01/25 10:12:37;;;;;;;8.27;3.03;;;;;;;21.49;34.18;102829.34;5007471;28;20033;-60
2024/01/25 10:15:04;;;;;;;7.88;2.92;;;;;;;22.13;33.37;102816.19;5026596;28;20041;-60
2024/01/25 10:17:31;;;;;;;9.30;2.92;;;;;;;22.99;31.99;102823.78;4986469;28;20203;-60
2024/01/25 10:19:57;;;;;;;8.88;3.05;;;;;;;23.49;31.43;102821.31;5022245;28;20029;-60
2024/01/25 10:22:22;;;;;;;8.15;3.25;;;;;;;23.87;30.83;102829.88;4971674;28;20144;-60
2024/01/25 10:24:53;;;;;;;9.57;3.15;;;;;;;23.77;30.73;102828.19;5021040;28;20029;-60
2024/01/25 10:27:19;;;;;;;7.95;3.03;;;;;;;23.36;31.15;102784.53;4957805;28;20924;-60
2024/01/25 10:29:45;;;;;;;7.75;2.85;;;;;;;23.40;31.47;102816.97;5023880;28;20081;-60
2024/01/25 10:32:11;;;;;;;7.82;3.08;;;;;;;23.23;31.81;102823.13;5022119;28;20095;-60
2024/01/25 10:34:37;;;;;;;8.65;3.60;;;;;;;23.04;32.00;102816.19;4977103;28;20124;-60
2024/01/25 10:37:05;;;;;;;10.40;3.78;;;;;;;22.87;32.22;102802.75;5014123;28;20045;-60
2024/01/25 10:39:31;;;;;;;7.88;3.08;;;;;;;22.65;32.75;102800.53;4990059;28;20163;-60
2024/01/25 10:41:58;;;;;;;11.50;3.30;;;;;;;22.58;32.93;102810.88;5024451;28;20042;-60
2024/01/25 10:44:24;;;;;;;11.38;2.88;;;;;;;22.46;33.18;102813.94;4967006;28;20033;-60
2024/01/25 10:46:50;;;;;;;10.05;3.22;;;;;;;22.39;32.87;102799.56;5026728;28;20342;-60
2024/01/25 10:49:18;;;;;;;7.55;3.45;;;;;;;22.33;33.16;102801.00;4965746;28;20037;-60
2024/01/25 10:51:45;;;;;;;7.72;3.90;;;;;;;22.34;33.17;102794.72;5010727;28;20608;-60
2024/01/25 10:54:14;;;;;;;9.15;3.10;;;;;;;22.27;32.98;102791.81;5024160;28;20029;-60
2024/01/25 10:56:42;;;;;;;9.63;4.07;;;;;;;22.23;33.05;102795.72;4972433;28;20044;-60
2024/01/25 10:59:08;;;;;;;9.13;3.30;;;;;;;22.19;33.40;102789.06;5021573;28;20037;-60
2024/01/25 11:01:35;;;;;;;9.30;3.00;;;;;;;22.15;33.40;102787.69;4975542;28;20098;-60
2024/01/25 11:04:00;;;;;;;9.43;3.60;;;;;;;22.08;33.31;102781.28;5022269;28;20047;-60
2024/01/25 11:06:27;;;;;;;9.20;3.25;;;;;;;22.09;33.52;102788.28;4975615;28;20041;-61
2024/01/25 11:09:04;;;;;;;10.15;3.90;;;;;;;22.08;33.45;102780.44;5019362;28;20041;-60
2024/01/25 11:11:31;;;;;;;12.02;3.88;;;;;;;22.17;33.37;102791.03;4975276;28;20448;-60
2024/01/25 11:13:57;;;;;;;12.15;3.63;;;;;;;22.19;33.19;102777.63;5019670;28;20038;-60
2024/01/25 11:16:31;;;;;;;8.32;3.28;;;;;;;22.36;32.79;102782.13;5021689;28;20414;-60
2024/01/25 11:19:04;;;;;;;8.60;4.20;;;;;;;22.30;33.07;102762.31;5020962;28;20056;-65